Easton, New Hampshire
Current Conditions -  °F | °C
As of 9:15 AM on Monday 22 Dec 2014 (Local Time) from K1P1 Reporting Station
Overcast Overcast  
Wind Chill: -1°   Ceiling: 4100
Heat Index: -1°   Visibility: 10mi
Dew Point: -1°   Wind: 0mph
Humidity: 100%   Direction: NA
Pressure: 30.39"   Gusts: NA
Location:  44.1173°N, 71.8999°W
Report Text: K1P1 221415Z AUTO 00000KT 10SM OVC041 M01/M01 A3039 RMK AO2 T10121012
Loading
Personal Weather Stations






























Interactive Weather Map New forecast layout! Learn more

10-Day Weather Forecast

Advertisements
Track Severe Weather on mobile